Time;durP1;ratioP1;P1;durP2;ratioP2;P2;SDS_P1;SDS_P2;PMS_P1;PMS_P2;Temp;Humidity;BMP_temperature;BMP_pressure;BME280_temperature;BME280_humidity;BME280_pressure;Samples;Min_cycle;Max_cycle;Signal;HPM_P1;HPM_P2
2024/01/06 00:01:44;;;;;;;11.30;4.45;;;6.60;83.00;;;;;;5072290;28;20027;-74
2024/01/06 00:04:10;;;;;;;8.15;3.50;;;6.60;81.90;;;;;;5072176;28;20017;-75
2024/01/06 00:06:35;;;;;;;5.68;3.00;;;6.50;82.10;;;;;;5072186;28;20031;-76
2024/01/06 00:09:01;;;;;;;5.70;3.20;;;6.50;81.50;;;;;;5072275;28;20021;-75
2024/01/06 00:11:26;;;;;;;7.50;3.13;;;6.40;81.80;;;;;;5072110;28;20020;-75
2024/01/06 00:13:52;;;;;;;4.18;2.80;;;6.50;82.00;;;;;;5072157;28;20407;-75
2024/01/06 00:16:18;;;;;;;4.45;2.65;;;6.40;81.70;;;;;;5072063;28;20025;-74
2024/01/06 00:18:44;;;;;;;6.95;2.47;;;6.40;81.00;;;;;;5071956;28;20061;-74
2024/01/06 00:21:10;;;;;;;6.05;2.17;;;6.40;79.40;;;;;;5072167;28;20481;-75
2024/01/06 00:23:38;;;;;;;5.25;2.63;;;6.30;79.60;;;;;;5072066;28;20024;-76
2024/01/06 00:26:05;;;;;;;3.55;1.98;;;6.30;79.80;;;;;;5071956;28;20458;-76
2024/01/06 00:28:31;;;;;;;7.65;2.60;;;6.30;79.80;;;;;;5071943;28;20028;-75
2024/01/06 00:30:56;;;;;;;6.10;2.22;;;6.30;79.10;;;;;;5071652;28;20531;-75
2024/01/06 00:33:22;;;;;;;5.75;2.20;;;6.30;78.90;;;;;;5071563;28;20297;-75
2024/01/06 00:35:49;;;;;;;4.97;2.08;;;6.30;78.80;;;;;;5071967;28;20515;-75
2024/01/06 00:38:14;;;;;;;4.93;1.85;;;6.40;78.70;;;;;;5071680;28;20044;-75
2024/01/06 00:40:41;;;;;;;3.20;1.52;;;6.30;78.70;;;;;;5071874;28;20435;-75
2024/01/06 00:43:06;;;;;;;3.28;1.80;;;6.30;78.60;;;;;;5071846;28;20048;-75
2024/01/06 00:45:33;;;;;;;5.72;2.10;;;6.40;78.60;;;;;;5071915;28;20091;-76
2024/01/06 00:47:59;;;;;;;4.38;2.63;;;6.40;78.20;;;;;;5071964;28;20081;-75
2024/01/06 00:50:24;;;;;;;9.13;3.53;;;6.40;78.00;;;;;;5071722;28;20020;-74
2024/01/06 00:52:53;;;;;;;8.60;3.65;;;6.40;77.90;;;;;;5072049;28;20021;-75
2024/01/06 00:55:23;;;;;;;8.20;3.40;;;6.40;78.00;;;;;;5059487;28;20028;-76
2024/01/06 00:57:49;;;;;;;6.20;3.47;;;6.40;78.20;;;;;;5075810;28;20037;-75
2024/01/06 01:00:15;;;;;;;5.45;3.58;;;6.40;78.40;;;;;;5075861;28;20034;-75
2024/01/06 01:02:41;;;;;;;7.30;3.67;;;6.40;78.50;;;;;;5075535;28;20032;-75
2024/01/06 01:05:09;;;;;;;8.23;3.15;;;6.40;78.90;;;;;;5075417;28;20027;-76
2024/01/06 01:07:35;;;;;;;7.30;3.10;;;6.40;79.10;;;;;;5075704;28;20021;-74
2024/01/06 01:10:01;;;;;;;3.70;2.22;;;6.40;79.10;;;;;;5075550;28;20123;-74
2024/01/06 01:12:28;;;;;;;6.47;2.03;;;6.40;79.10;;;;;;5075554;28;20027;-74
2024/01/06 01:14:54;;;;;;;3.97;1.88;;;6.40;78.80;;;;;;5076868;28;20059;-75
2024/01/06 01:17:19;;;;;;;5.05;2.20;;;6.40;78.30;;;;;;5075682;28;20048;-74
2024/01/06 01:19:46;;;;;;;4.47;2.00;;;6.30;78.30;;;;;;5075505;28;20488;-75
2024/01/06 01:22:11;;;;;;;5.55;1.73;;;6.40;78.20;;;;;;5075526;28;20024;-74
2024/01/06 01:24:37;;;;;;;5.78;2.03;;;6.40;78.10;;;;;;5078071;28;20036;-75
2024/01/06 01:27:03;;;;;;;8.45;2.05;;;6.40;78.00;;;;;;5080898;28;20484;-74
2024/01/06 01:29:28;;;;;;;5.18;1.70;;;6.40;77.90;;;;;;5078155;28;20116;-76
2024/01/06 01:31:54;;;;;;;4.15;1.67;;;6.40;77.70;;;;;;5080913;28;20487;-76
2024/01/06 01:34:19;;;;;;;7.93;2.20;;;6.40;77.40;;;;;;5081542;28;20028;-75
2024/01/06 01:36:45;;;;;;;9.60;1.80;;;6.40;77.10;;;;;;5074602;28;20508;-75
2024/01/06 01:39:12;;;;;;;3.67;1.30;;;6.40;76.90;;;;;;5078178;28;20053;-75
2024/01/06 01:41:37;;;;;;;5.60;1.85;;;6.30;76.40;;;;;;5084431;28;20097;-75
2024/01/06 01:44:03;;;;;;;4.15;1.80;;;6.30;76.50;;;;;;5069243;28;20029;-75
2024/01/06 01:46:30;;;;;;;8.88;2.03;;;6.30;76.60;;;;;;5086072;28;20403;-76
2024/01/06 01:48:59;;;;;;;6.18;1.63;;;6.30;76.50;;;;;;5084806;28;20028;-75
2024/01/06 01:51:28;;;;;;;5.35;1.77;;;6.20;76.40;;;;;;5078250;28;20084;-76
2024/01/06 01:53:59;;;;;;;3.53;1.63;;;6.20;77.00;;;;;;5079584;28;20024;-77
2024/01/06 01:56:26;;;;;;;3.80;1.58;;;6.20;77.10;;;;;;5078202;28;20021;-76
2024/01/06 01:58:52;;;;;;;7.18;2.22;;;6.20;77.20;;;;;;5077572;28;20287;-76
2024/01/06 02:01:19;;;;;;;4.35;1.58;;;6.10;77.40;;;;;;5077493;28;20021;-77
2024/01/06 02:03:44;;;;;;;5.00;1.73;;;6.00;77.60;;;;;;5059782;28;20032;-75
2024/01/06 02:06:11;;;;;;;6.10;1.95;;;6.00;77.80;;;;;;5073685;28;20530;-76
2024/01/06 02:08:37;;;;;;;2.65;1.40;;;5.90;78.00;;;;;;5074281;28;20036;-75
2024/01/06 02:11:03;;;;;;;4.15;1.60;;;5.90;78.20;;;;;;5074439;28;20017;-75
2024/01/06 02:13:37;;;;;;;7.15;1.90;;;5.90;78.50;;;;;;5075368;28;20098;-74
2024/01/06 02:16:04;;;;;;;5.40;1.63;;;5.90;78.80;;;;;;5074300;28;20028;-77
2024/01/06 02:18:34;;;;;;;5.53;1.90;;;5.90;78.90;;;;;;5074250;28;20070;-75
2024/01/06 02:21:02;;;;;;;5.43;2.20;;;5.90;79.00;;;;;;5074361;28;20021;-77
2024/01/06 02:23:28;;;;;;;4.75;2.03;;;5.90;78.90;;;;;;5057275;28;20123;-74
2024/01/06 02:25:55;;;;;;;6.60;2.28;;;5.90;79.20;;;;;;5057433;28;20032;-74
2024/01/06 02:28:22;;;;;;;4.03;2.00;;;5.90;79.40;;;;;;5057456;28;20028;-74
2024/01/06 02:30:49;;;;;;;4.10;1.95;;;5.90;80.00;;;;;;5073940;28;20081;-79
2024/01/06 02:33:14;;;;;;;5.05;1.88;;;6.00;80.30;;;;;;5057226;28;20029;-78
2024/01/06 02:35:40;;;;;;;4.65;2.33;;;6.00;80.30;;;;;;5073925;28;20031;-76
2024/01/06 02:38:06;;;;;;;4.75;2.22;;;6.10;80.60;;;;;;5073251;28;20566;-76
2024/01/06 02:40:32;;;;;;;6.38;2.50;;;6.10;80.50;;;;;;5073997;28;20033;-76
2024/01/06 02:42:58;;;;;;;4.60;1.80;;;6.10;80.60;;;;;;5073540;28;20226;-75
2024/01/06 02:45:24;;;;;;;4.75;2.15;;;6.10;80.50;;;;;;5073758;28;20028;-76
2024/01/06 02:47:50;;;;;;;4.25;1.95;;;6.10;80.60;;;;;;5073346;28;20036;-76
2024/01/06 02:50:15;;;;;;;5.43;2.38;;;6.10;80.60;;;;;;5073781;28;20420;-81
2024/01/06 02:52:42;;;;;;;3.47;1.88;;;6.00;80.70;;;;;;5073926;28;20380;-81
2024/01/06 02:55:08;;;;;;;4.72;1.77;;;6.00;80.90;;;;;;5056931;28;20112;-80
2024/01/06 02:57:35;;;;;;;6.45;2.38;;;6.00;80.90;;;;;;5074412;28;20071;-82
2024/01/06 03:00:01;;;;;;;3.20;1.85;;;6.00;81.00;;;;;;5058442;28;20059;-80
2024/01/06 03:02:27;;;;;;;5.75;1.92;;;6.10;81.00;;;;;;5074349;28;20035;-81
2024/01/06 03:04:54;;;;;;;4.78;2.03;;;6.00;81.00;;;;;;5074357;28;20035;-80
2024/01/06 03:07:20;;;;;;;5.72;1.95;;;6.00;81.00;;;;;;5073523;28;20077;-80
2024/01/06 03:09:46;;;;;;;7.38;2.13;;;6.00;81.00;;;;;;5073325;28;20115;-81
2024/01/06 03:12:12;;;;;;;3.85;1.90;;;6.00;81.20;;;;;;5074117;28;20126;-81
2024/01/06 03:14:38;;;;;;;3.78;1.77;;;6.00;81.40;;;;;;5073159;28;20035;-81
2024/01/06 03:17:04;;;;;;;5.72;2.63;;;6.00;81.40;;;;;;5072552;28;20036;-81
2024/01/06 03:19:31;;;;;;;4.93;2.30;;;6.10;81.50;;;;;;5072887;28;20040;-81
2024/01/06 03:21:56;;;;;;;5.32;2.30;;;6.10;81.50;;;;;;5073041;28;20039;-79
2024/01/06 03:24:23;;;;;;;4.85;2.35;;;6.10;81.50;;;;;;5072403;28;20473;-81
2024/01/06 03:26:49;;;;;;;6.95;2.03;;;6.10;81.20;;;;;;5072900;28;20035;-81
2024/01/06 03:29:15;;;;;;;7.30;2.25;;;6.00;80.80;;;;;;5072943;28;20024;-81
2024/01/06 03:31:45;;;;;;;5.35;1.90;;;5.90;80.60;;;;;;5072743;28;20086;-81
2024/01/06 03:34:13;;;;;;;5.15;2.20;;;5.90;80.60;;;;;;5072467;28;20025;-80
2024/01/06 03:36:39;;;;;;;5.32;1.65;;;5.90;80.60;;;;;;5072512;28;20025;-82
2024/01/06 03:39:05;;;;;;;7.03;1.90;;;5.90;81.10;;;;;;5072619;28;20039;-80
2024/01/06 03:41:30;;;;;;;4.90;1.55;;;5.80;80.30;;;;;;5072655;28;20461;-81
2024/01/06 03:43:56;;;;;;;4.25;1.58;;;5.80;80.10;;;;;;5072030;28;20116;-81
2024/01/06 03:46:22;;;;;;;4.55;1.65;;;5.80;79.90;;;;;;5072347;28;20412;-81
2024/01/06 03:48:48;;;;;;;6.55;1.60;;;5.80;79.50;;;;;;5072281;28;20032;-80
2024/01/06 03:51:13;;;;;;;6.45;1.95;;;5.80;79.60;;;;;;5072410;28;20032;-80
2024/01/06 03:53:40;;;;;;;4.63;1.60;;;5.80;79.50;;;;;;5071999;28;20047;-81
2024/01/06 03:56:06;;;;;;;8.93;2.08;;;5.80;79.50;;;;;;5072345;28;20025;-79
2024/01/06 03:58:32;;;;;;;7.55;1.98;;;5.80;79.20;;;;;;5072147;28;20041;-82
2024/01/06 04:00:57;;;;;;;4.80;1.60;;;5.70;79.00;;;;;;5072321;28;20031;-82
2024/01/06 04:03:23;;;;;;;3.78;2.00;;;5.70;79.20;;;;;;5071726;28;20082;-81
2024/01/06 04:05:50;;;;;;;5.38;2.00;;;5.70;79.50;;;;;;5072302;28;20496;-79
2024/01/06 04:08:15;;;;;;;4.15;2.00;;;5.70;79.70;;;;;;5072047;28;20024;-80
2024/01/06 04:10:41;;;;;;;9.90;2.47;;;5.70;79.70;;;;;;5072166;28;20483;-80
2024/01/06 04:13:14;;;;;;;9.07;3.03;;;5.70;79.40;;;;;;5072230;28;20385;-80
2024/01/06 04:15:40;;;;;;;7.75;3.10;;;5.70;79.20;;;;;;5072300;28;20028;-80
2024/01/06 04:18:06;;;;;;;8.10;3.70;;;5.60;79.00;;;;;;5076671;28;20089;-80
2024/01/06 04:20:34;;;;;;;13.63;5.65;;;5.60;79.10;;;;;;5077163;28;20023;-80
2024/01/06 04:22:59;;;;;;;11.02;3.72;;;5.60;79.30;;;;;;5072147;28;20029;-80
2024/01/06 04:25:25;;;;;;;11.85;3.90;;;5.60;79.10;;;;;;5071767;28;20036;-80
2024/01/06 04:27:51;;;;;;;10.45;3.97;;;5.50;79.20;;;;;;5072060;28;20099;-80
2024/01/06 04:30:17;;;;;;;11.77;2.83;;;5.50;79.60;;;;;;5071626;28;20024;-80
2024/01/06 04:32:43;;;;;;;10.20;2.40;;;5.50;79.20;;;;;;5071953;28;20031;-80
2024/01/06 04:35:09;;;;;;;7.28;2.30;;;5.50;78.60;;;;;;5071874;28;20111;-81
2024/01/06 04:37:35;;;;;;;8.30;2.17;;;5.50;78.50;;;;;;5071032;28;20519;-81
2024/01/06 04:40:02;;;;;;;6.40;2.25;;;5.40;78.80;;;;;;5055156;28;20087;-80
2024/01/06 04:42:27;;;;;;;7.35;1.90;;;5.30;78.90;;;;;;5071818;28;20064;-79
2024/01/06 04:44:53;;;;;;;6.68;2.42;;;5.30;78.80;;;;;;5071914;28;20036;-79
2024/01/06 04:47:19;;;;;;;10.98;3.88;;;5.40;78.80;;;;;;5071668;28;20021;-79
2024/01/06 04:49:44;;;;;;;8.65;3.20;;;5.40;78.60;;;;;;5071854;28;20056;-81
2024/01/06 04:52:10;;;;;;;9.13;3.53;;;5.40;78.60;;;;;;5071634;28;20431;-81
2024/01/06 04:54:36;;;;;;;9.88;2.70;;;5.40;78.70;;;;;;5071617;28;20028;-80
2024/01/06 04:57:02;;;;;;;6.28;3.35;;;5.40;79.00;;;;;;5071920;28;20452;-79
2024/01/06 04:59:27;;;;;;;6.25;3.08;;;5.40;78.90;;;;;;5055684;28;20489;-79
2024/01/06 05:01:53;;;;;;;6.63;2.90;;;5.50;79.10;;;;;;5072916;28;20055;-80
2024/01/06 05:04:19;;;;;;;7.75;2.90;;;5.50;78.70;;;;;;5072200;28;20028;-80
2024/01/06 05:06:45;;;;;;;8.10;2.45;;;5.40;78.70;;;;;;5071610;28;20554;-79
2024/01/06 05:09:11;;;;;;;5.95;2.00;;;5.40;78.70;;;;;;5054824;28;20032;-80
2024/01/06 05:11:36;;;;;;;7.90;2.38;;;5.40;78.50;;;;;;5071423;28;20484;-77
2024/01/06 05:14:02;;;;;;;10.35;2.53;;;5.40;78.50;;;;;;5054763;28;20025;-80
2024/01/06 05:16:28;;;;;;;9.10;2.42;;;5.40;78.60;;;;;;5071405;28;20040;-79
2024/01/06 05:18:53;;;;;;;7.00;2.83;;;5.40;78.20;;;;;;5071388;28;20032;-79
2024/01/06 05:21:19;;;;;;;11.20;3.88;;;5.40;78.10;;;;;;5071476;28;20033;-81
2024/01/06 05:23:46;;;;;;;6.13;2.40;;;5.40;78.30;;;;;;5070795;28;20111;-80
2024/01/06 05:26:13;;;;;;;6.53;2.50;;;5.40;78.50;;;;;;5070943;28;20024;-79
2024/01/06 05:28:40;;;;;;;6.88;2.00;;;5.40;78.50;;;;;;5071421;28;20053;-80
2024/01/06 05:31:05;;;;;;;9.18;2.22;;;5.40;78.70;;;;;;5054777;28;20513;-78
2024/01/06 05:33:31;;;;;;;5.32;2.00;;;5.30;78.60;;;;;;5071397;28;20024;-75
2024/01/06 05:35:56;;;;;;;5.88;2.20;;;5.30;78.60;;;;;;5071393;28;20025;-77
2024/01/06 05:38:22;;;;;;;9.15;2.33;;;5.30;78.60;;;;;;5070878;28;20052;-75
2024/01/06 05:40:48;;;;;;;8.68;2.78;;;5.30;78.50;;;;;;5072106;28;20024;-76
2024/01/06 05:43:13;;;;;;;9.27;2.67;;;5.30;78.80;;;;;;5058060;28;20041;-76
2024/01/06 05:45:41;;;;;;;7.63;2.80;;;5.30;78.80;;;;;;5074978;28;20027;-75
2024/01/06 05:48:10;;;;;;;9.07;2.28;;;5.40;78.50;;;;;;5074879;28;20025;-75
2024/01/06 05:50:39;;;;;;;8.48;2.83;;;5.40;78.30;;;;;;5058365;28;20032;-75
2024/01/06 05:53:04;;;;;;;4.90;2.15;;;5.40;78.40;;;;;;5074418;28;20123;-75
2024/01/06 05:55:30;;;;;;;13.05;2.95;;;5.30;78.10;;;;;;5074785;28;20063;-76
2024/01/06 05:57:55;;;;;;;6.15;2.13;;;5.40;78.10;;;;;;5074525;28;20566;-75
2024/01/06 06:00:22;;;;;;;4.32;1.67;;;5.30;77.90;;;;;;5075530;28;20028;-75
2024/01/06 06:02:48;;;;;;;3.97;2.03;;;5.40;77.90;;;;;;5074492;28;20020;-75
2024/01/06 06:05:13;;;;;;;7.20;2.20;;;5.30;77.80;;;;;;5074497;28;20047;-76
2024/01/06 06:07:39;;;;;;;8.95;2.17;;;5.20;78.00;;;;;;5074472;28;20070;-76
2024/01/06 06:10:11;;;;;;;5.35;1.90;;;5.30;78.10;;;;;;5074433;28;20033;-75
2024/01/06 06:12:37;;;;;;;11.38;2.65;;;5.20;77.90;;;;;;5074122;28;20389;-76
2024/01/06 06:15:04;;;;;;;4.90;2.15;;;5.20;77.80;;;;;;5074398;28;20396;-76
2024/01/06 06:17:31;;;;;;;8.07;2.33;;;5.20;77.70;;;;;;5073420;28;20027;-76
2024/01/06 06:19:57;;;;;;;8.02;2.30;;;5.10;77.90;;;;;;5057688;28;20028;-76
2024/01/06 06:22:29;;;;;;;5.38;1.88;;;5.00;77.90;;;;;;5073931;28;20025;-76
2024/01/06 06:24:55;;;;;;;7.28;2.67;;;5.00;78.00;;;;;;5074313;28;20024;-76
2024/01/06 06:27:21;;;;;;;8.23;2.65;;;5.00;77.80;;;;;;5074185;28;20086;-76
2024/01/06 06:29:47;;;;;;;12.57;2.50;;;5.10;78.80;;;;;;5074110;28;20028;-75
2024/01/06 06:32:12;;;;;;;9.35;3.80;;;5.10;77.90;;;;;;5074084;28;20032;-75
2024/01/06 06:34:38;;;;;;;7.85;2.60;;;5.10;77.80;;;;;;5074028;28;20032;-76
2024/01/06 06:37:03;;;;;;;6.60;2.25;;;5.10;77.70;;;;;;5073887;28;20105;-77
2024/01/06 06:39:31;;;;;;;10.55;3.15;;;5.10;77.90;;;;;;5073600;28;20515;-76
2024/01/06 06:41:56;;;;;;;4.80;2.67;;;5.20;77.90;;;;;;5073594;28;20074;-74
2024/01/06 06:44:23;;;;;;;8.57;3.55;;;5.10;77.60;;;;;;5073777;28;20384;-74
2024/01/06 06:46:49;;;;;;;11.25;4.57;;;5.20;77.60;;;;;;5073561;28;20028;-74
2024/01/06 06:49:14;;;;;;;9.75;4.53;;;5.20;77.60;;;;;;5073669;28;20058;-74
2024/01/06 06:51:46;;;;;;;9.38;4.25;;;5.20;77.40;;;;;;5073448;28;20029;-74
2024/01/06 06:54:12;;;;;;;12.07;6.30;;;5.30;77.60;;;;;;5073657;28;20055;-74
2024/01/06 06:56:38;;;;;;;10.32;5.75;;;5.30;78.20;;;;;;5073154;28;20028;-74
2024/01/06 06:59:03;;;;;;;6.93;4.28;;;5.30;77.80;;;;;;5073453;28;20495;-74
2024/01/06 07:01:29;;;;;;;7.63;4.40;;;5.30;77.90;;;;;;5073416;28;20369;-74
2024/01/06 07:03:55;;;;;;;10.38;3.80;;;5.30;78.10;;;;;;5073427;28;20064;-74
2024/01/06 07:06:20;;;;;;;9.82;3.95;;;5.40;78.40;;;;;;5056656;28;20028;-74
2024/01/06 07:08:46;;;;;;;8.70;4.18;;;5.40;78.90;;;;;;5073336;28;20024;-74
2024/01/06 07:11:14;;;;;;;6.35;3.58;;;5.40;79.10;;;;;;5072652;28;20020;-74
2024/01/06 07:13:40;;;;;;;6.97;3.38;;;5.40;79.30;;;;;;5073249;28;20551;-74
2024/01/06 07:16:07;;;;;;;5.65;3.00;;;5.40;79.50;;;;;;5073229;28;20126;-74
2024/01/06 07:18:32;;;;;;;7.60;2.85;;;5.40;79.90;;;;;;5073025;28;20393;-74
2024/01/06 07:20:58;;;;;;;6.60;2.20;;;5.40;79.90;;;;;;5073039;28;20028;-74
2024/01/06 07:23:24;;;;;;;8.82;2.50;;;5.40;80.10;;;;;;5072921;28;20050;-74
2024/01/06 07:25:49;;;;;;;5.22;2.22;;;5.30;80.10;;;;;;5072838;28;20027;-74
2024/01/06 07:28:15;;;;;;;5.38;2.15;;;5.30;80.20;;;;;;5072947;28;20443;-74
2024/01/06 07:30:41;;;;;;;5.00;2.35;;;5.30;80.20;;;;;;5072830;28;20032;-75
2024/01/06 07:33:06;;;;;;;7.05;2.28;;;5.30;80.40;;;;;;5072741;28;20135;-74
2024/01/06 07:35:32;;;;;;;8.00;2.22;;;5.30;80.50;;;;;;5072763;28;20016;-74
2024/01/06 07:37:57;;;;;;;5.25;2.13;;;5.30;80.30;;;;;;5072408;28;20519;-74
2024/01/06 07:40:25;;;;;;;3.20;2.10;;;5.30;81.10;;;;;;5055728;28;20115;-74
2024/01/06 07:42:51;;;;;;;7.32;2.17;;;5.30;80.30;;;;;;5072679;28;20082;-74
2024/01/06 07:45:17;;;;;;;8.43;2.42;;;5.30;81.00;;;;;;5072354;28;20066;-74
2024/01/06 07:47:42;;;;;;;5.55;2.40;;;5.40;80.00;;;;;;5072551;28;20024;-75
2024/01/06 07:50:09;;;;;;;9.73;2.60;;;5.40;79.90;;;;;;5072192;28;20035;-74
2024/01/06 07:52:35;;;;;;;4.13;2.45;;;5.40;79.90;;;;;;5072494;28;20338;-74
2024/01/06 07:55:01;;;;;;;7.80;3.05;;;5.40;80.10;;;;;;5072164;28;20021;-74
2024/01/06 07:57:27;;;;;;;3.92;2.75;;;5.40;80.30;;;;;;5072018;28;20052;-74
2024/01/06 07:59:52;;;;;;;6.00;2.42;;;5.30;80.30;;;;;;5071977;28;20491;-74
2024/01/06 08:02:18;;;;;;;8.10;2.95;;;5.40;80.60;;;;;;5072240;28;20029;-74
2024/01/06 08:04:44;;;;;;;4.70;2.42;;;5.40;80.70;;;;;;5071021;28;20028;-74
2024/01/06 08:07:10;;;;;;;4.53;1.98;;;5.40;80.70;;;;;;5071852;28;20013;-74
2024/01/06 08:09:35;;;;;;;4.53;2.13;;;5.40;80.80;;;;;;5072257;28;20074;-74
2024/01/06 08:12:03;;;;;;;7.05;2.75;;;5.40;80.60;;;;;;5071846;28;20028;-74
2024/01/06 08:14:28;;;;;;;5.10;2.10;;;5.40;80.70;;;;;;5072162;28;20024;-74
2024/01/06 08:16:54;;;;;;;6.10;2.78;;;5.40;80.70;;;;;;5071732;28;20039;-74
2024/01/06 08:19:20;;;;;;;4.25;2.30;;;5.40;80.80;;;;;;5072037;28;20033;-75
2024/01/06 08:21:45;;;;;;;8.15;2.85;;;5.40;80.70;;;;;;5071806;28;20052;-74
2024/01/06 08:24:11;;;;;;;10.27;4.10;;;5.50;80.80;;;;;;5072088;28;20025;-74
2024/01/06 08:26:36;;;;;;;10.65;4.70;;;5.50;81.60;;;;;;5071492;28;20507;-74
2024/01/06 08:29:02;;;;;;;6.75;4.15;;;5.50;80.50;;;;;;5071976;28;20017;-74
2024/01/06 08:31:28;;;;;;;9.10;4.35;;;5.50;80.00;;;;;;5071466;28;20033;-76
2024/01/06 08:33:53;;;;;;;6.38;3.85;;;5.50;79.80;;;;;;5072020;28;20112;-74
2024/01/06 08:36:20;;;;;;;7.32;3.83;;;5.50;79.80;;;;;;5055216;28;20476;-74
2024/01/06 08:38:46;;;;;;;12.45;4.35;;;5.50;79.70;;;;;;5071332;28;20131;-74
2024/01/06 08:41:11;;;;;;;6.65;4.30;;;5.50;79.70;;;;;;5071932;28;20487;-74
2024/01/06 08:43:39;;;;;;;7.43;4.85;;;5.50;79.70;;;;;;5073182;28;20033;-75
2024/01/06 08:46:05;;;;;;;14.10;7.65;;;5.60;79.60;;;;;;5071823;28;20335;-75
2024/01/06 08:48:31;;;;;;;14.32;7.97;;;5.60;79.50;;;;;;5071685;28;20540;-75
2024/01/06 08:50:56;;;;;;;16.83;8.25;;;5.70;79.50;;;;;;5071670;28;20120;-75
2024/01/06 08:53:22;;;;;;;14.05;8.40;;;5.70;79.50;;;;;;5071669;28;20056;-75
2024/01/06 08:55:47;;;;;;;11.10;7.30;;;5.70;79.40;;;;;;5071440;28;20202;-75
2024/01/06 08:58:13;;;;;;;11.20;7.10;;;5.70;79.30;;;;;;5071594;28;20025;-75
2024/01/06 09:00:39;;;;;;;11.20;6.18;;;5.80;79.10;;;;;;5054787;28;20475;-75
2024/01/06 09:03:04;;;;;;;9.18;5.00;;;5.80;78.90;;;;;;5071577;28;20031;-75
2024/01/06 09:05:31;;;;;;;12.05;5.25;;;5.90;78.20;;;;;;5071071;28;20389;-75
2024/01/06 09:07:57;;;;;;;9.07;4.68;;;5.90;77.50;;;;;;5071525;28;20434;-75
2024/01/06 09:10:23;;;;;;;8.48;4.28;;;5.90;77.00;;;;;;5071483;28;20021;-75
2024/01/06 09:12:48;;;;;;;9.30;3.97;;;5.90;76.70;;;;;;5070951;28;20171;-76
2024/01/06 09:15:14;;;;;;;8.75;3.88;;;5.80;75.80;;;;;;5055982;28;20031;-74
2024/01/06 09:17:40;;;;;;;8.90;3.30;;;5.70;76.10;;;;;;5075356;28;20027;-75
2024/01/06 09:20:06;;;;;;;8.73;3.30;;;5.80;76.00;;;;;;5075472;28;20414;-75
2024/01/06 09:22:32;;;;;;;10.10;4.00;;;5.90;76.10;;;;;;5075096;28;20028;-76
2024/01/06 09:24:59;;;;;;;8.77;4.40;;;5.90;75.90;;;;;;5076563;28;20060;-76
2024/01/06 09:27:24;;;;;;;10.02;3.67;;;5.90;75.30;;;;;;5075213;28;20021;-75
2024/01/06 09:29:50;;;;;;;11.52;4.28;;;5.90;74.70;;;;;;5075107;28;20021;-76
2024/01/06 09:32:16;;;;;;;10.05;3.90;;;5.80;75.10;;;;;;5074975;28;20027;-75
2024/01/06 09:34:42;;;;;;;6.88;3.38;;;5.80;74.80;;;;;;5075282;28;20017;-76
2024/01/06 09:37:08;;;;;;;8.80;3.72;;;5.80;74.60;;;;;;5076253;28;20057;-74
2024/01/06 09:39:34;;;;;;;7.50;3.53;;;5.80;74.20;;;;;;5074675;28;20086;-75
2024/01/06 09:42:01;;;;;;;7.88;3.58;;;5.80;74.10;;;;;;5074633;28;20019;-75
2024/01/06 09:44:27;;;;;;;6.10;3.13;;;5.80;74.90;;;;;;5075293;28;20385;-74
2024/01/06 09:46:55;;;;;;;10.73;3.80;;;5.90;74.00;;;;;;5074852;28;20115;-76
2024/01/06 09:49:23;;;;;;;7.10;2.65;;;5.80;73.80;;;;;;5074885;28;20079;-75
2024/01/06 09:51:58;;;;;;;6.20;2.90;;;5.80;73.90;;;;;;5074774;28;20110;-75
2024/01/06 09:54:25;;;;;;;7.35;2.85;;;5.80;74.30;;;;;;5074162;28;20457;-75
2024/01/06 09:56:52;;;;;;;9.13;2.88;;;5.70;73.70;;;;;;5074489;28;20366;-75
2024/01/06 09:59:21;;;;;;;6.15;2.13;;;5.80;74.10;;;;;;5074657;28;20032;-75
2024/01/06 10:01:46;;;;;;;7.45;2.25;;;5.80;72.40;;;;;;5074625;28;20028;-75
2024/01/06 10:04:18;;;;;;;7.40;2.20;;;5.80;72.50;;;;;;5075758;28;20478;-75
2024/01/06 10:06:44;;;;;;;10.00;2.80;;;5.80;73.40;;;;;;5074248;28;20091;-74
2024/01/06 10:09:11;;;;;;;4.55;2.38;;;5.80;73.80;;;;;;5074354;28;20129;-74
2024/01/06 10:11:37;;;;;;;6.78;2.25;;;5.90;73.00;;;;;;5074428;28;20025;-77
2024/01/06 10:14:05;;;;;;;7.10;2.88;;;6.00;72.80;;;;;;5057680;28;20384;-74
2024/01/06 10:16:31;;;;;;;12.07;2.92;;;6.10;71.50;;;;;;5074043;28;20043;-75
2024/01/06 10:18:57;;;;;;;8.70;2.58;;;6.20;70.90;;;;;;5074346;28;20056;-75
2024/01/06 10:21:26;;;;;;;7.78;2.58;;;6.30;70.40;;;;;;5073929;28;20071;-75
2024/01/06 10:23:53;;;;;;;9.15;3.22;;;6.40;70.20;;;;;;5074297;28;20062;-76
2024/01/06 10:26:19;;;;;;;5.45;2.80;;;6.40;70.00;;;;;;5078306;28;20024;-75
2024/01/06 10:28:44;;;;;;;6.68;2.80;;;6.50;69.80;;;;;;5064843;28;20377;-75
2024/01/06 10:31:10;;;;;;;3.22;2.30;;;6.60;69.50;;;;;;5073641;28;20054;-75
2024/01/06 10:33:35;;;;;;;5.35;2.67;;;6.50;70.10;;;;;;5074180;28;20021;-75
2024/01/06 10:36:03;;;;;;;6.45;2.72;;;6.60;69.60;;;;;;5073730;28;20067;-76
2024/01/06 10:38:29;;;;;;;6.38;2.30;;;6.50;68.40;;;;;;5073502;28;20049;-75
2024/01/06 10:41:09;;;;;;;5.88;2.08;;;6.60;68.50;;;;;;5074071;28;20064;-74
2024/01/06 10:43:37;;;;;;;6.03;2.67;;;6.70;68.60;;;;;;5074716;28;20029;-75
2024/01/06 10:46:05;;;;;;;7.82;2.30;;;6.80;68.30;;;;;;5073951;28;20047;-75
2024/01/06 10:48:33;;;;;;;6.93;2.83;;;6.80;66.90;;;;;;5073824;28;20024;-75
2024/01/06 10:50:59;;;;;;;7.72;2.75;;;6.80;67.20;;;;;;5073651;28;20477;-75
2024/01/06 10:53:26;;;;;;;4.43;2.25;;;6.70;68.30;;;;;;5073707;28;20031;-75
2024/01/06 10:55:53;;;;;;;7.40;2.15;;;6.60;68.40;;;;;;5073635;28;20032;-76
2024/01/06 10:58:19;;;;;;;7.38;2.20;;;6.50;69.20;;;;;;5073437;28;20040;-78
2024/01/06 11:00:45;;;;;;;4.85;2.25;;;6.40;69.50;;;;;;5073617;28;20016;-76
2024/01/06 11:03:13;;;;;;;8.40;2.97;;;6.20;69.50;;;;;;5073042;28;20031;-75
2024/01/06 11:05:40;;;;;;;5.20;3.13;;;6.20;70.10;;;;;;5073050;28;20124;-74
2024/01/06 11:08:06;;;;;;;15.40;8.25;;;6.20;70.30;;;;;;5073023;28;20067;-75
2024/01/06 11:10:33;;;;;;;8.30;4.47;;;6.30;70.50;;;;;;5073138;28;20060;-75
2024/01/06 11:13:20;;;;;;;5.50;2.70;;;6.30;69.90;;;;;;5073261;28;20134;-79
2024/01/06 11:15:48;;;;;;;6.72;2.35;;;6.30;69.90;;;;;;5073224;28;20041;-80
2024/01/06 11:18:34;;;;;;;5.85;2.20;;;6.20;69.40;;;;;;5073086;28;20032;-80
2024/01/06 11:21:16;;;;;;;3.80;1.67;;;6.20;69.20;;;;;;5073824;28;20020;-74
2024/01/06 11:23:42;;;;;;;3.90;2.10;;;6.20;69.40;;;;;;5073024;28;20047;-75
2024/01/06 11:26:09;;;;;;;4.68;2.05;;;6.20;70.30;;;;;;5072940;28;20028;-75
2024/01/06 11:28:50;;;;;;;2.67;1.02;;;6.20;69.00;;;;;;5072880;28;20513;-73
2024/01/06 11:31:16;;;;;;;2.75;1.30;;;6.20;68.10;;;;;;5073085;28;20165;-78
2024/01/06 11:33:50;;;;;;;3.97;1.55;;;6.00;68.50;;;;;;5073891;28;20020;-78
2024/01/06 11:36:16;;;;;;;4.07;1.42;;;5.80;68.80;;;;;;5073899;28;20025;-76
2024/01/06 11:38:48;;;;;;;2.97;1.25;;;5.90;69.40;;;;;;5071294;28;20122;-80
2024/01/06 11:41:52;;;;;;;2.30;1.52;;;5.90;69.60;;;;;;5073897;28;20059;-78
2024/01/06 11:44:21;;;;;;;3.38;1.30;;;5.90;69.90;;;;;;5072573;28;20078;-77
2024/01/06 11:46:49;;;;;;;4.38;2.08;;;6.00;69.70;;;;;;5073828;28;20139;-77
2024/01/06 11:49:16;;;;;;;7.22;1.83;;;6.00;69.30;;;;;;5072515;28;20016;-79
2024/01/06 11:51:41;;;;;;;3.75;1.48;;;5.90;69.50;;;;;;5072385;28;20028;-80
2024/01/06 11:54:09;;;;;;;1.88;1.50;;;5.80;69.70;;;;;;5073477;28;20027;-76
2024/01/06 11:56:35;;;;;;;5.75;2.13;;;5.80;69.80;;;;;;5072307;28;20028;-80
2024/01/06 11:59:00;;;;;;;2.92;1.77;;;5.80;69.90;;;;;;5072083;28;20090;-76
2024/01/06 12:01:26;;;;;;;3.58;1.33;;;5.80;69.80;;;;;;5072547;28;20028;-74
2024/01/06 12:03:55;;;;;;;3.13;1.45;;;5.80;69.70;;;;;;5074827;28;20078;-75
2024/01/06 12:06:23;;;;;;;6.10;1.90;;;5.80;70.00;;;;;;5072412;28;20056;-76
2024/01/06 12:08:49;;;;;;;3.03;1.65;;;5.70;70.70;;;;;;5071966;28;20029;-75
2024/01/06 12:11:18;;;;;;;3.20;1.42;;;5.70;70.90;;;;;;5072509;28;20020;-73
2024/01/06 12:13:44;;;;;;;2.75;1.27;;;5.70;71.40;;;;;;5072416;28;20123;-75
2024/01/06 12:16:10;;;;;;;2.90;1.30;;;5.70;71.30;;;;;;5072057;28;20385;-76
2024/01/06 12:18:35;;;;;;;3.92;1.65;;;5.70;72.00;;;;;;5072013;28;20066;-75
2024/01/06 12:21:01;;;;;;;3.47;1.45;;;5.70;71.00;;;;;;5072288;28;20021;-74
2024/01/06 12:23:27;;;;;;;2.15;1.10;;;5.70;71.40;;;;;;5055415;28;20025;-76
2024/01/06 12:25:56;;;;;;;3.38;1.73;;;5.70;71.40;;;;;;5072133;28;20465;-75
2024/01/06 12:28:21;;;;;;;4.32;1.15;;;5.80;71.40;;;;;;5055368;28;20523;-74
2024/01/06 12:30:47;;;;;;;1.30;0.95;;;5.90;70.40;;;;;;5055123;28;20029;-74
2024/01/06 12:33:14;;;;;;;4.03;1.13;;;5.80;70.00;;;;;;5071687;28;20052;-73
2024/01/06 12:35:41;;;;;;;3.40;1.52;;;5.80;70.00;;;;;;5055224;28;20141;-73
2024/01/06 12:38:08;;;;;;;1.13;0.88;;;5.80;70.30;;;;;;5054808;28;20136;-74
2024/01/06 12:40:37;;;;;;;1.15;0.80;;;5.70;70.90;;;;;;5071328;28;20031;-76
2024/01/06 12:43:05;;;;;;;2.10;1.23;;;5.70;71.40;;;;;;5072762;28;20496;-76
2024/01/06 12:45:30;;;;;;;4.20;1.77;;;5.70;71.60;;;;;;5071937;28;20074;-75
2024/01/06 12:47:56;;;;;;;5.25;1.52;;;5.70;72.20;;;;;;5071143;28;20021;-76
2024/01/06 12:50:21;;;;;;;4.95;2.58;;;5.70;72.60;;;;;;5071297;28;20388;-76
2024/01/06 12:52:47;;;;;;;2.67;1.88;;;5.60;73.00;;;;;;5071836;28;20017;-75